Time;durP1;ratioP1;P1;durP2;ratioP2;P2;SDS_P1;SDS_P2;PMS_P1;PMS_P2;Temp;Humidity;BMP_temperature;BMP_pressure;BME280_temperature;BME280_humidity;BME280_pressure;Samples;Min_cycle;Max_cycle;Signal;HPM_P1;HPM_P2
2022/01/28 00:04:53;;;;;;;15.68;7.65;;;;;;;;;;5014997;28;20113;-71
2022/01/28 00:07:19;;;;;;;16.23;7.75;;;;;;;;;;5016345;28;20436;-74
2022/01/28 00:09:45;;;;;;;14.82;7.40;;;;;;;;;;5014302;28;20037;-73
2022/01/28 00:12:13;;;;;;;16.85;8.05;;;;;;;;;;5015110;28;20022;-69
2022/01/28 00:38:49;;;;;;;9.13;4.80;;;;;;;;;;5015068;28;20036;-69
2022/01/28 00:41:16;;;;;;;12.77;5.38;;;;;;;;;;5013391;28;20022;-69
2022/01/28 00:43:42;;;;;;;9.40;4.70;;;;;;;;;;5014115;28;20037;-71
2022/01/28 00:46:09;;;;;;;9.27;4.50;;;;;;;;;;5013341;28;20065;-69
2022/01/28 00:48:35;;;;;;;10.25;4.68;;;;;;;;;;5013300;28;20030;-73
2022/01/28 00:51:02;;;;;;;8.52;3.78;;;;;;;;;;5014806;28;20034;-72
2022/01/28 00:53:28;;;;;;;9.40;4.63;;;;;;;;;;5014165;28;20081;-74
2022/01/28 00:55:54;;;;;;;8.80;4.55;;;;;;;;;;5014994;28;20441;-71
2022/01/28 00:58:21;;;;;;;9.57;4.55;;;;;;;;;;5014411;28;20029;-74
2022/01/28 01:00:47;;;;;;;7.80;4.25;;;;;;;;;;5014429;28;20080;-69
2022/01/28 01:03:13;;;;;;;9.25;4.28;;;;;;;;;;5012655;28;20025;-72
2022/01/28 01:05:39;;;;;;;7.43;3.38;;;;;;;;;;5012714;28;20461;-70
2022/01/28 01:08:06;;;;;;;7.18;3.58;;;;;;;;;;5012600;28;20030;-74
2022/01/28 01:10:33;;;;;;;8.02;3.88;;;;;;;;;;5012954;28;20030;-76
2022/01/28 01:13:00;;;;;;;8.52;3.88;;;;;;;;;;5014422;28;20022;-74
2022/01/28 01:15:32;;;;;;;7.45;3.70;;;;;;;;;;5014393;28;20030;-76
2022/01/28 01:23:12;;;;;;;8.90;4.25;;;;;;;;;;5013975;28;20402;-72
2022/01/28 01:26:30;;;;;;;9.60;4.78;;;;;;;;;;5012723;28;20037;-72
2022/01/28 01:28:31;;;;;;;7.97;4.38;;;;;;;;;;5006692;28;20026;-71
2022/01/28 01:30:59;;;;;;;9.07;4.35;;;;;;;;;;5012592;28;20068;-74
2022/01/28 01:33:26;;;;;;;7.93;4.20;;;;;;;;;;5013913;28;20025;-73
2022/01/28 01:35:53;;;;;;;7.97;4.53;;;;;;;;;;5012483;28;20037;-73
2022/01/28 01:38:24;;;;;;;10.73;5.07;;;;;;;;;;5012563;28;20033;-74
2022/01/28 01:40:53;;;;;;;9.70;4.25;;;;;;;;;;5012607;28;20072;-75
2022/01/28 01:43:37;;;;;;;7.70;4.28;;;;;;;;;;5013664;28;20123;-73
2022/01/28 01:54:18;;;;;;;8.30;3.90;;;;;;;;;;5013468;28;20521;-74
2022/01/28 01:56:46;;;;;;;7.65;4.13;;;;;;;;;;5013554;28;20030;-72
2022/01/28 01:59:12;;;;;;;7.65;4.47;;;;;;;;;;5013573;28;20105;-74
2022/01/28 02:01:43;;;;;;;5.93;3.35;;;;;;;;;;5013496;28;20532;-74
2022/01/28 02:04:10;;;;;;;7.38;3.83;;;;;;;;;;5013578;28;20058;-74
2022/01/28 02:06:37;;;;;;;9.27;3.63;;;;;;;;;;5014069;28;20097;-73
2022/01/28 02:09:04;;;;;;;7.90;4.25;;;;;;;;;;5013405;28;20113;-74
2022/01/28 02:11:31;;;;;;;7.63;4.25;;;;;;;;;;5013389;28;20041;-75
2022/01/28 02:13:57;;;;;;;7.57;4.40;;;;;;;;;;5013723;28;20036;-72
2022/01/28 02:16:23;;;;;;;7.78;4.32;;;;;;;;;;5013913;28;20383;-72
2022/01/28 02:18:50;;;;;;;7.75;4.55;;;;;;;;;;5012034;28;20443;-73
2022/01/28 02:21:18;;;;;;;8.13;4.50;;;;;;;;;;5013999;28;20466;-73
2022/01/28 02:23:48;;;;;;;8.88;4.60;;;;;;;;;;5012972;28;20103;-72
2022/01/28 02:26:16;;;;;;;7.43;4.10;;;;;;;;;;5016671;28;20036;-70
2022/01/28 02:28:45;;;;;;;7.85;4.05;;;;;;;;;;5016051;28;20038;-71
2022/01/28 02:31:12;;;;;;;8.10;4.53;;;;;;;;;;5017132;28;20022;-73
2022/01/28 02:33:38;;;;;;;9.32;4.65;;;;;;;;;;5015889;28;20117;-73
2022/01/28 02:36:06;;;;;;;9.70;4.78;;;;;;;;;;5015752;28;20022;-72
2022/01/28 02:38:34;;;;;;;6.80;4.03;;;;;;;;;;4999909;28;20030;-74
2022/01/28 02:41:02;;;;;;;8.82;4.60;;;;;;;;;;5015683;28;20041;-74
2022/01/28 02:43:37;;;;;;;9.38;4.10;;;;;;;;;;5016865;28;20018;-72
2022/01/28 02:46:13;;;;;;;7.85;4.13;;;;;;;;;;5016881;28;20530;-73
2022/01/28 02:48:42;;;;;;;9.88;4.38;;;;;;;;;;5015676;28;20022;-70
2022/01/28 02:53:47;;;;;;;8.35;4.45;;;;;;;;;;5016456;28;20046;-72
2022/01/28 02:56:34;;;;;;;7.97;4.43;;;;;;;;;;5015429;28;20030;-70
2022/01/28 02:59:01;;;;;;;7.80;4.10;;;;;;;;;;5015404;28;20036;-75
2022/01/28 03:01:27;;;;;;;8.75;4.78;;;;;;;;;;5016857;28;20371;-72
2022/01/28 03:03:55;;;;;;;8.95;4.88;;;;;;;;;;5016507;28;20088;-74
2022/01/28 03:06:22;;;;;;;8.63;4.47;;;;;;;;;;5015218;28;20037;-71
2022/01/28 03:08:56;;;;;;;8.32;4.40;;;;;;;;;;5015170;28;20025;-74
2022/01/28 03:16:41;;;;;;;7.95;4.03;;;;;;;;;;5016959;28;20037;-72
2022/01/28 03:19:17;;;;;;;8.88;4.60;;;;;;;;;;5015095;28;20048;-72
2022/01/28 03:21:53;;;;;;;8.23;4.38;;;;;;;;;;5000159;28;20041;-72
2022/01/28 03:24:20;;;;;;;7.03;4.38;;;;;;;;;;5016778;28;20069;-73
2022/01/28 03:26:50;;;;;;;9.00;4.65;;;;;;;;;;5014939;28;20026;-75
2022/01/28 03:29:17;;;;;;;6.63;3.55;;;;;;;;;;5014926;28;20021;-72
2022/01/28 03:31:43;;;;;;;5.95;3.55;;;;;;;;;;5016544;28;20029;-70
2022/01/28 03:34:09;;;;;;;8.48;4.05;;;;;;;;;;5016436;28;20037;-72
2022/01/28 03:36:36;;;;;;;6.88;4.03;;;;;;;;;;5013677;28;20033;-74
2022/01/28 03:39:03;;;;;;;7.05;4.03;;;;;;;;;;5015845;28;20034;-71
2022/01/28 03:41:29;;;;;;;6.97;3.40;;;;;;;;;;5014690;28;20367;-74
2022/01/28 03:43:58;;;;;;;6.93;3.47;;;;;;;;;;5014544;28;20467;-74
2022/01/28 03:46:28;;;;;;;6.32;3.13;;;;;;;;;;5015898;28;20197;-74
2022/01/28 03:48:55;;;;;;;7.43;3.55;;;;;;;;;;5016396;28;20370;-75
2022/01/28 03:51:22;;;;;;;5.65;3.13;;;;;;;;;;5015794;28;20022;-73
2022/01/28 03:53:48;;;;;;;6.97;3.63;;;;;;;;;;5014246;28;20395;-75
2022/01/28 03:56:14;;;;;;;7.78;3.45;;;;;;;;;;5014284;28;20056;-73
2022/01/28 03:58:41;;;;;;;6.63;3.65;;;;;;;;;;5014330;28;20037;-73
2022/01/28 04:01:15;;;;;;;8.25;3.70;;;;;;;;;;5014379;28;20028;-70
2022/01/28 04:04:22;;;;;;;7.20;3.40;;;;;;;;;;5014203;28;20033;-73
2022/01/28 04:12:05;;;;;;;6.80;3.05;;;;;;;;;;5015515;28;20040;-74
2022/01/28 04:14:42;;;;;;;4.75;2.40;;;;;;;;;;5014122;28;20029;-73
2022/01/28 04:17:20;;;;;;;3.72;2.42;;;;;;;;;;5013886;28;20022;-72
2022/01/28 04:19:47;;;;;;;3.78;2.03;;;;;;;;;;5015772;28;20028;-73
2022/01/28 04:22:13;;;;;;;5.70;2.03;;;;;;;;;;4997729;28;20053;-74
2022/01/28 04:24:39;;;;;;;5.30;2.13;;;;;;;;;;5013706;28;20403;-73
2022/01/28 04:27:05;;;;;;;4.28;2.20;;;;;;;;;;5013855;28;20026;-71
2022/01/28 04:29:31;;;;;;;3.72;2.10;;;;;;;;;;5013802;28;20112;-74
2022/01/28 04:31:58;;;;;;;3.53;2.00;;;;;;;;;;5013763;28;20057;-74
2022/01/28 04:34:24;;;;;;;4.07;2.00;;;;;;;;;;5015293;28;20105;-74
2022/01/28 04:42:09;;;;;;;5.40;2.10;;;;;;;;;;5015900;28;20033;-74
2022/01/28 04:47:19;;;;;;;4.05;2.00;;;;;;;;;;5015300;28;20478;-73
2022/01/28 04:57:56;;;;;;;3.00;1.80;;;;;;;;;;5014971;28;20033;-73
2022/01/28 05:00:34;;;;;;;3.50;2.00;;;;;;;;;;5014245;28;20034;-73
2022/01/28 05:03:21;;;;;;;4.15;1.88;;;;;;;;;;5013272;28;20034;-73
2022/01/28 05:12:39;;;;;;;3.85;1.60;;;;;;;;;;5014874;28;20544;-73
2022/01/28 05:27:46;;;;;;;2.78;1.27;;;;;;;;;;5014300;28;20038;-73
2022/01/28 05:30:13;;;;;;;2.50;1.30;;;;;;;;;;5012324;28;20446;-72
2022/01/28 05:32:39;;;;;;;2.42;1.20;;;;;;;;;;5012514;28;20057;-73
2022/01/28 05:35:05;;;;;;;2.47;1.30;;;;;;;;;;5012346;28;20034;-71
2022/01/28 05:37:31;;;;;;;3.85;1.67;;;;;;;;;;5012634;28;20041;-75
2022/01/28 05:39:57;;;;;;;2.95;1.52;;;;;;;;;;5013428;28;20026;-72
2022/01/28 05:42:23;;;;;;;3.45;1.52;;;;;;;;;;5014022;28;20383;-70
2022/01/28 05:44:49;;;;;;;3.13;1.52;;;;;;;;;;5013347;28;20061;-71
2022/01/28 05:47:16;;;;;;;3.55;1.25;;;;;;;;;;5013728;28;20068;-72
2022/01/28 05:49:43;;;;;;;2.53;1.20;;;;;;;;;;5012549;28;20060;-71
2022/01/28 05:52:10;;;;;;;2.30;1.10;;;;;;;;;;5013721;28;20442;-74
2022/01/28 05:54:36;;;;;;;3.03;1.50;;;;;;;;;;5013554;28;20081;-71
2022/01/28 05:57:03;;;;;;;4.25;1.48;;;;;;;;;;5012500;28;20026;-75
2022/01/28 05:59:30;;;;;;;2.67;1.02;;;;;;;;;;5013002;28;20033;-75
2022/01/28 06:01:56;;;;;;;2.17;1.17;;;;;;;;;;5013621;28;20475;-73
2022/01/28 06:04:23;;;;;;;2.55;1.20;;;;;;;;;;5012285;28;20037;-72
2022/01/28 06:06:49;;;;;;;2.35;1.15;;;;;;;;;;5013585;28;20050;-69
2022/01/28 06:09:15;;;;;;;3.17;1.27;;;;;;;;;;5013692;28;20033;-72
2022/01/28 06:11:43;;;;;;;3.03;1.10;;;;;;;;;;5012232;28;20546;-71
2022/01/28 06:14:09;;;;;;;2.42;1.02;;;;;;;;;;5012285;28;20033;-73
2022/01/28 06:16:35;;;;;;;2.42;0.88;;;;;;;;;;5012089;28;20025;-74
2022/01/28 06:19:02;;;;;;;1.55;0.80;;;;;;;;;;5012227;28;20425;-73
2022/01/28 06:21:28;;;;;;;1.83;0.75;;;;;;;;;;5012194;28;20390;-72
2022/01/28 06:23:55;;;;;;;3.42;0.70;;;;;;;;;;5013792;28;20036;-70
2022/01/28 06:26:22;;;;;;;1.58;0.60;;;;;;;;;;5012452;28;20064;-72
2022/01/28 06:28:48;;;;;;;2.28;0.70;;;;;;;;;;5012103;28;20490;-71
2022/01/28 06:31:14;;;;;;;3.10;0.63;;;;;;;;;;5013598;28;20026;-71
2022/01/28 06:33:41;;;;;;;2.42;0.80;;;;;;;;;;5012066;28;20029;-73
2022/01/28 06:36:07;;;;;;;3.95;0.88;;;;;;;;;;5012021;28;20030;-74
2022/01/28 06:38:33;;;;;;;2.30;0.68;;;;;;;;;;5012026;28;20065;-73
2022/01/28 06:40:59;;;;;;;1.73;0.60;;;;;;;;;;5011865;28;20026;-69
2022/01/28 06:43:25;;;;;;;2.22;0.40;;;;;;;;;;5011995;28;20487;-71
2022/01/28 06:45:52;;;;;;;3.00;0.40;;;;;;;;;;5011913;28;20117;-73
2022/01/28 06:48:19;;;;;;;2.30;0.52;;;;;;;;;;5011932;28;20030;-72
2022/01/28 06:50:45;;;;;;;2.40;0.40;;;;;;;;;;5011918;28;20030;-72
2022/01/28 06:53:12;;;;;;;4.32;0.60;;;;;;;;;;5011648;28;20156;-73
2022/01/28 06:55:39;;;;;;;1.08;0.40;;;;;;;;;;5011935;28;20570;-74
2022/01/28 06:58:06;;;;;;;4.70;0.38;;;;;;;;;;5013170;28;20024;-74
2022/01/28 07:00:39;;;;;;;2.30;0.43;;;;;;;;;;5011922;28;20029;-74
2022/01/28 07:03:06;;;;;;;3.90;0.50;;;;;;;;;;5013456;28;20033;-70
2022/01/28 07:05:32;;;;;;;3.92;0.50;;;;;;;;;;5013246;28;20048;-72
2022/01/28 07:07:58;;;;;;;1.98;0.70;;;;;;;;;;5013602;28;20088;-74
2022/01/28 07:10:25;;;;;;;3.10;0.50;;;;;;;;;;5012648;28;20026;-73
2022/01/28 07:12:54;;;;;;;2.13;0.70;;;;;;;;;;5015267;28;20022;-74
2022/01/28 07:15:23;;;;;;;1.08;0.50;;;;;;;;;;5016445;28;20513;-74
2022/01/28 07:17:49;;;;;;;1.77;0.70;;;;;;;;;;5015202;28;20120;-71
2022/01/28 07:20:17;;;;;;;2.13;0.60;;;;;;;;;;5016395;28;20030;-74
2022/01/28 07:22:43;;;;;;;1.10;0.50;;;;;;;;;;5015147;28;20121;-75
2022/01/28 07:25:10;;;;;;;2.75;0.70;;;;;;;;;;5016522;28;20117;-75
2022/01/28 07:27:36;;;;;;;5.90;0.75;;;;;;;;;;5014945;28;20022;-71
2022/01/28 07:30:03;;;;;;;1.60;0.70;;;;;;;;;;5016169;28;20136;-69
2022/01/28 07:32:29;;;;;;;1.52;0.47;;;;;;;;;;5016194;28;20033;-73
2022/01/28 07:34:55;;;;;;;1.25;0.35;;;;;;;;;;5014851;28;20030;-74
2022/01/28 07:37:21;;;;;;;3.83;0.50;;;;;;;;;;5016039;28;20030;-74
2022/01/28 07:39:47;;;;;;;1.10;0.38;;;;;;;;;;5016041;28;20018;-71
2022/01/28 07:42:13;;;;;;;1.65;0.55;;;;;;;;;;5016264;28;20022;-71
2022/01/28 07:44:40;;;;;;;1.17;0.40;;;;;;;;;;5014494;28;20034;-74
2022/01/28 07:47:06;;;;;;;2.42;0.40;;;;;;;;;;5016337;28;20363;-71
2022/01/28 07:49:32;;;;;;;2.60;0.57;;;;;;;;;;5016356;28;20030;-71
2022/01/28 07:51:58;;;;;;;2.30;0.43;;;;;;;;;;5014578;28;20076;-70
2022/01/28 07:54:27;;;;;;;2.63;0.50;;;;;;;;;;5014606;28;20058;-71
2022/01/28 07:56:54;;;;;;;1.98;0.50;;;;;;;;;;5016448;28;20109;-72
2022/01/28 07:59:20;;;;;;;2.95;0.70;;;;;;;;;;5014355;28;20030;-72
2022/01/28 08:01:47;;;;;;;2.22;0.47;;;;;;;;;;5014308;28;20387;-72
2022/01/28 08:04:13;;;;;;;1.80;0.52;;;;;;;;;;5015449;28;20026;-72
2022/01/28 08:06:40;;;;;;;0.85;0.40;;;;;;;;;;5014256;28;20390;-74
2022/01/28 08:09:06;;;;;;;2.30;0.55;;;;;;;;;;5015743;28;20095;-73
2022/01/28 08:11:34;;;;;;;1.98;0.57;;;;;;;;;;5015401;28;20108;-76
2022/01/28 08:14:00;;;;;;;2.03;0.50;;;;;;;;;;5016570;28;20101;-73
2022/01/28 08:16:26;;;;;;;2.17;0.55;;;;;;;;;;5016028;28;20036;-75
2022/01/28 08:18:52;;;;;;;1.77;0.52;;;;;;;;;;5015525;28;20018;-71
2022/01/28 08:21:19;;;;;;;1.75;0.60;;;;;;;;;;5015213;28;20394;-72
2022/01/28 08:23:45;;;;;;;1.80;0.60;;;;;;;;;;5014487;28;20033;-73
2022/01/28 08:26:11;;;;;;;2.10;0.73;;;;;;;;;;5013895;28;20036;-75
2022/01/28 08:28:41;;;;;;;1.67;0.50;;;;;;;;;;5014955;28;20386;-74
2022/01/28 08:31:07;;;;;;;1.88;0.38;;;;;;;;;;5015017;28;20026;-73
2022/01/28 08:33:34;;;;;;;1.98;0.50;;;;;;;;;;5013611;28;20030;-74
2022/01/28 08:36:02;;;;;;;1.75;0.43;;;;;;;;;;5015046;28;20066;-75
2022/01/28 08:38:38;;;;;;;2.97;0.40;;;;;;;;;;5015403;28;20048;-73
2022/01/28 08:41:04;;;;;;;3.33;1.73;;;;;;;;;;5013495;28;20030;-73
2022/01/28 08:43:32;;;;;;;2.05;0.52;;;;;;;;;;5013454;28;20484;-73
2022/01/28 08:45:58;;;;;;;2.42;0.70;;;;;;;;;;5014659;28;20475;-73
2022/01/28 08:48:24;;;;;;;1.13;0.40;;;;;;;;;;5013001;28;20025;-73
2022/01/28 08:50:50;;;;;;;1.00;0.40;;;;;;;;;;5013407;28;20080;-72
2022/01/28 08:53:17;;;;;;;1.10;0.40;;;;;;;;;;5012947;28;20430;-70
2022/01/28 08:55:43;;;;;;;2.20;0.45;;;;;;;;;;4996558;28;20042;-72
2022/01/28 08:58:10;;;;;;;1.20;0.40;;;;;;;;;;5013801;28;20080;-71
2022/01/28 09:00:37;;;;;;;4.47;0.65;;;;;;;;;;5012651;28;20445;-73
2022/01/28 09:03:03;;;;;;;2.20;0.50;;;;;;;;;;5012834;28;20022;-69
2022/01/28 09:05:29;;;;;;;1.80;0.60;;;;;;;;;;5013042;28;20038;-73
2022/01/28 09:07:56;;;;;;;2.42;0.60;;;;;;;;;;5013032;28;20099;-75
2022/01/28 09:10:30;;;;;;;2.83;1.20;;;;;;;;;;5014478;28;20172;-74
2022/01/28 09:15:33;;;;;;;1.77;0.40;;;;;;;;;;5014177;28;20053;-73
2022/01/28 09:17:59;;;;;;;2.78;0.50;;;;;;;;;;5012842;28;20400;-73
2022/01/28 09:20:25;;;;;;;2.40;0.80;;;;;;;;;;5012856;28;20037;-74
2022/01/28 09:22:52;;;;;;;1.35;0.35;;;;;;;;;;5014618;28;20030;-72
2022/01/28 09:25:18;;;;;;;0.75;0.20;;;;;;;;;;5014188;28;20390;-76
2022/01/28 09:27:44;;;;;;;0.73;0.22;;;;;;;;;;5014269;28;20033;-74
2022/01/28 09:30:11;;;;;;;0.73;0.20;;;;;;;;;;5014159;28;20026;-73
2022/01/28 09:32:37;;;;;;;1.33;0.17;;;;;;;;;;5012686;28;20084;-75
2022/01/28 09:35:03;;;;;;;2.28;0.20;;;;;;;;;;5013280;28;20053;-75
2022/01/28 09:37:30;;;;;;;2.70;0.40;;;;;;;;;;5013885;28;20027;-74
2022/01/28 09:39:56;;;;;;;0.73;0.20;;;;;;;;;;5014091;28;20032;-75
2022/01/28 09:42:32;;;;;;;1.40;0.43;;;;;;;;;;5012548;28;20076;-71
2022/01/28 09:45:01;;;;;;;2.75;0.45;;;;;;;;;;5012458;28;20398;-73
2022/01/28 09:47:27;;;;;;;1.20;0.30;;;;;;;;;;5013766;28;20024;-71
2022/01/28 09:49:54;;;;;;;1.17;0.30;;;;;;;;;;5012550;28;20030;-73
2022/01/28 09:52:20;;;;;;;1.48;0.40;;;;;;;;;;5013665;28;20022;-73
2022/01/28 09:54:46;;;;;;;0.70;0.28;;;;;;;;;;5011979;28;20170;-72
2022/01/28 09:57:17;;;;;;;1.27;0.40;;;;;;;;;;5013930;28;20072;-70
2022/01/28 09:59:43;;;;;;;2.47;0.40;;;;;;;;;;5014515;28;20030;-73
2022/01/28 10:02:09;;;;;;;1.40;0.20;;;;;;;;;;5012342;28;20516;-75
2022/01/28 10:04:35;;;;;;;1.75;0.40;;;;;;;;;;5014087;28;20038;-74
2022/01/28 10:07:11;;;;;;;2.03;0.60;;;;;;;;;;5013598;28;20483;-74
2022/01/28 10:09:54;;;;;;;1.17;0.30;;;;;;;;;;5012218;28;20061;-74
2022/01/28 10:12:27;;;;;;;3.08;0.50;;;;;;;;;;5013515;28;20072;-75
2022/01/28 10:15:07;;;;;;;2.45;0.50;;;;;;;;;;5012396;28;20034;-74
2022/01/28 10:17:56;;;;;;;5.03;0.47;;;;;;;;;;5013785;28;20022;-72
2022/01/28 10:20:23;;;;;;;1.63;0.43;;;;;;;;;;5012224;28;20028;-74
2022/01/28 10:22:53;;;;;;;4.22;0.60;;;;;;;;;;5012159;28;20029;-72
2022/01/28 10:25:23;;;;;;;2.40;0.30;;;;;;;;;;5012110;28;20041;-73
2022/01/28 10:27:59;;;;;;;2.75;0.70;;;;;;;;;;5012132;28;20128;-73
2022/01/28 10:30:25;;;;;;;3.67;0.15;;;;;;;;;;5012138;28;20060;-74
2022/01/28 10:33:10;;;;;;;0.65;0.30;;;;;;;;;;5014043;28;20022;-71
2022/01/28 10:35:37;;;;;;;1.88;0.30;;;;;;;;;;5012012;28;20022;-76
2022/01/28 10:38:07;;;;;;;2.88;0.25;;;;;;;;;;5010325;28;20058;-72
2022/01/28 10:40:33;;;;;;;4.35;0.52;;;;;;;;;;5011914;28;20029;-73
2022/01/28 10:43:00;;;;;;;5.03;0.30;;;;;;;;;;5013042;28;20109;-71
2022/01/28 10:45:31;;;;;;;1.60;0.50;;;;;;;;;;5012934;28;20030;-70
2022/01/28 10:47:59;;;;;;;1.63;0.40;;;;;;;;;;5015733;28;20037;-68
2022/01/28 10:50:31;;;;;;;1.42;0.38;;;;;;;;;;5015700;28;20026;-70
2022/01/28 10:52:59;;;;;;;2.05;0.28;;;;;;;;;;5015685;28;20030;-71
2022/01/28 10:55:25;;;;;;;1.45;0.40;;;;;;;;;;5016675;28;20128;-73
2022/01/28 10:58:02;;;;;;;4.45;0.40;;;;;;;;;;5015590;28;20033;-71
2022/01/28 11:00:30;;;;;;;2.83;0.45;;;;;;;;;;5015484;28;20037;-70
2022/01/28 11:02:58;;;;;;;3.83;0.73;;;;;;;;;;5016757;28;20041;-70
2022/01/28 11:05:24;;;;;;;4.47;0.65;;;;;;;;;;5017096;28;20038;-74
2022/01/28 11:07:51;;;;;;;3.20;0.50;;;;;;;;;;5016641;28;20038;-74
2022/01/28 11:10:18;;;;;;;1.42;0.40;;;;;;;;;;5015284;28;20497;-72
2022/01/28 11:12:44;;;;;;;1.73;0.40;;;;;;;;;;5016514;28;20072;-75
2022/01/28 11:15:11;;;;;;;3.47;0.73;;;;;;;;;;5016603;28;20463;-72
2022/01/28 11:17:37;;;;;;;1.90;0.47;;;;;;;;;;5015272;28;20082;-72
2022/01/28 11:20:05;;;;;;;2.90;0.60;;;;;;;;;;5015240;28;20386;-75
2022/01/28 11:22:53;;;;;;;2.22;0.40;;;;;;;;;;5015120;28;20053;-72
2022/01/28 11:25:25;;;;;;;3.72;0.47;;;;;;;;;;5015017;28;20117;-72
2022/01/28 11:27:51;;;;;;;2.42;0.60;;;;;;;;;;5015002;28;20030;-73
2022/01/28 11:30:17;;;;;;;4.18;0.60;;;;;;;;;;5015004;28;20026;-74
2022/01/28 11:33:16;;;;;;;2.95;0.52;;;;;;;;;;5014866;28;20025;-73
2022/01/28 11:36:03;;;;;;;3.97;0.50;;;;;;;;;;4982915;28;20037;-74
2022/01/28 11:38:30;;;;;;;1.95;0.35;;;;;;;;;;5014910;28;20077;-75
2022/01/28 11:40:58;;;;;;;0.20;0.13;;;;;;;;;;5014754;28;20049;-74
2022/01/28 11:43:29;;;;;;;1.60;0.40;;;;;;;;;;5014547;28;20067;-75
2022/01/28 11:46:08;;;;;;;0.15;0.10;;;;;;;;;;5014617;28;20045;-74
2022/01/28 11:48:52;;;;;;;0.90;0.30;;;;;;;;;;5015862;28;20529;-73
2022/01/28 11:51:38;;;;;;;2.17;0.55;;;;;;;;;;5014557;28;20075;-70
2022/01/28 11:54:06;;;;;;;2.33;0.57;;;;;;;;;;5014036;28;20081;-73
2022/01/28 11:56:33;;;;;;;3.05;0.63;;;;;;;;;;5013785;28;20026;-72
2022/01/28 11:59:00;;;;;;;1.77;0.50;;;;;;;;;;5014132;28;20055;-73
2022/01/28 12:01:46;;;;;;;3.55;0.50;;;;;;;;;;5014316;28;20036;-72
2022/01/28 12:04:29;;;;;;;2.60;0.57;;;;;;;;;;5014067;28;20038;-71
2022/01/28 12:07:01;;;;;;;4.20;0.43;;;;;;;;;;5014281;28;20033;-71
2022/01/28 12:09:29;;;;;;;3.60;0.68;;;;;;;;;;5014385;28;20030;-73
2022/01/28 12:11:55;;;;;;;2.30;0.65;;;;;;;;;;5014142;28;20030;-71
2022/01/28 12:14:40;;;;;;;1.25;0.40;;;;;;;;;;5015305;28;20037;-74
2022/01/28 12:17:25;;;;;;;2.85;0.65;;;;;;;;;;5014050;28;20379;-74
2022/01/28 12:20:09;;;;;;;1.98;0.50;;;;;;;;;;5014072;28;20029;-72
2022/01/28 12:22:35;;;;;;;5.18;0.68;;;;;;;;;;5013933;28;20117;-70
2022/01/28 12:25:02;;;;;;;2.45;0.47;;;;;;;;;;5013818;28;20041;-74
2022/01/28 12:27:35;;;;;;;3.75;0.60;;;;;;;;;;5015136;28;20068;-72
2022/01/28 12:30:13;;;;;;;2.33;0.43;;;;;;;;;;5013876;28;20026;-71
2022/01/28 12:32:39;;;;;;;2.58;0.68;;;;;;;;;;5013781;28;20482;-69
2022/01/28 12:35:05;;;;;;;3.58;0.65;;;;;;;;;;5015523;28;20026;-72
2022/01/28 12:37:37;;;;;;;4.80;0.80;;;;;;;;;;5013652;28;20474;-71
2022/01/28 12:40:13;;;;;;;2.78;0.70;;;;;;;;;;5013694;28;20030;-72
2022/01/28 12:42:40;;;;;;;1.90;0.35;;;;;;;;;;5015434;28;20022;-73
2022/01/28 12:45:06;;;;;;;3.33;0.50;;;;;;;;;;5013492;28;20037;-72
2022/01/28 12:47:33;;;;;;;2.53;0.55;;;;;;;;;;5013551;28;20113;-71
2022/01/28 12:50:04;;;;;;;3.42;0.60;;;;;;;;;;5013442;28;20041;-72
2022/01/28 12:52:34;;;;;;;1.80;0.52;;;;;;;;;;5013474;28;20022;-73
2022/01/28 12:55:01;;;;;;;2.20;0.65;;;;;;;;;;5014535;28;20057;-74
2022/01/28 12:57:27;;;;;;;4.38;0.85;;;;;;;;;;5013305;28;20391;-73
2022/01/28 12:59:54;;;;;;;3.70;0.85;;;;;;;;;;5014612;28;20030;-74
2022/01/28 13:02:20;;;;;;;1.95;0.68;;;;;;;;;;5014509;28;20472;-71
2022/01/28 13:09:56;;;;;;;3.50;0.93;;;;;;;;;;5014267;28;20026;-73
2022/01/28 13:12:29;;;;;;;5.10;0.70;;;;;;;;;;5013207;28;20386;-70
2022/01/28 13:15:03;;;;;;;4.15;0.80;;;;;;;;;;5013074;28;20030;-73
2022/01/28 13:17:30;;;;;;;2.45;0.70;;;;;;;;;;5013018;28;20033;-74
2022/01/28 13:19:58;;;;;;;2.33;0.63;;;;;;;;;;5012945;28;20030;-74
2022/01/28 13:22:25;;;;;;;4.60;0.90;;;;;;;;;;5014289;28;20026;-75
2022/01/28 13:24:52;;;;;;;2.10;0.68;;;;;;;;;;5012900;28;20041;-75
2022/01/28 13:27:20;;;;;;;3.25;0.85;;;;;;;;;;5014170;28;20041;-75
2022/01/28 13:29:49;;;;;;;2.92;0.77;;;;;;;;;;5014068;28;20033;-74
2022/01/28 13:32:40;;;;;;;4.03;0.80;;;;;;;;;;5012876;28;20026;-74
2022/01/28 13:35:11;;;;;;;7.88;1.95;;;;;;;;;;5012797;28;20030;-74
2022/01/28 13:37:44;;;;;;;8.88;1.95;;;;;;;;;;5012801;28;20026;-71
2022/01/28 13:40:30;;;;;;;5.65;1.10;;;;;;;;;;5014503;28;20057;-73
2022/01/28 13:43:09;;;;;;;13.73;3.70;;;;;;;;;;5012472;28;20470;-72
2022/01/28 13:45:37;;;;;;;3.17;1.00;;;;;;;;;;5012491;28;20044;-72
2022/01/28 13:48:05;;;;;;;8.55;2.33;;;;;;;;;;5012571;28;20026;-72
2022/01/28 13:50:34;;;;;;;4.78;1.60;;;;;;;;;;5012590;28;20026;-73
2022/01/28 13:54:15;;;;;;;6.13;2.05;;;;;;;;;;5012442;28;20041;-72
2022/01/28 13:56:01;;;;;;;7.80;2.65;;;;;;;;;;4974147;28;20473;-72
2022/01/28 13:58:27;;;;;;;7.32;1.45;;;;;;;;;;4973431;28;20472;-74
2022/01/28 14:00:54;;;;;;;5.20;1.33;;;;;;;;;;4974198;28;20023;-72
2022/01/28 14:03:24;;;;;;;3.47;0.95;;;;;;;;;;4973321;28;20482;-73
2022/01/28 14:05:53;;;;;;;3.90;0.90;;;;;;;;;;4974523;28;20090;-71
2022/01/28 14:08:39;;;;;;;4.18;1.17;;;;;;;;;;4973255;28;20038;-72
2022/01/28 14:11:18;;;;;;;3.22;1.30;;;;;;;;;;4973311;28;20058;-72
2022/01/28 14:13:44;;;;;;;4.78;1.10;;;;;;;;;;4973247;28;20380;-70
2022/01/28 14:16:15;;;;;;;4.47;1.13;;;;;;;;;;4973188;28;20147;-72
2022/01/28 14:18:41;;;;;;;2.28;0.95;;;;;;;;;;4974742;28;20045;-70
2022/01/28 14:21:07;;;;;;;4.65;1.17;;;;;;;;;;4975440;28;20484;-73
2022/01/28 14:23:43;;;;;;;2.47;0.90;;;;;;;;;;4978313;28;20023;-73
2022/01/28 14:26:10;;;;;;;2.75;0.90;;;;;;;;;;4977167;28;20039;-71
2022/01/28 14:28:40;;;;;;;7.55;1.60;;;;;;;;;;4976998;28;20023;-73
2022/01/28 14:31:08;;;;;;;7.43;1.27;;;;;;;;;;4977011;28;20110;-74
2022/01/28 14:33:36;;;;;;;3.63;0.90;;;;;;;;;;4978808;28;20033;-73
2022/01/28 14:36:03;;;;;;;3.15;0.85;;;;;;;;;;4976940;28;20502;-70
2022/01/28 14:38:29;;;;;;;3.67;1.10;;;;;;;;;;4976927;28;20053;-74
2022/01/28 14:40:55;;;;;;;6.60;1.13;;;;;;;;;;4976785;28;20062;-70
2022/01/28 14:43:22;;;;;;;5.88;1.33;;;;;;;;;;4976828;28;20030;-71
2022/01/28 14:45:48;;;;;;;4.88;0.90;;;;;;;;;;4976665;28;20605;-71
2022/01/28 14:48:19;;;;;;;4.80;1.00;;;;;;;;;;4976723;28;20483;-73
2022/01/28 14:50:46;;;;;;;7.82;1.35;;;;;;;;;;4978210;28;20073;-71
2022/01/28 14:53:12;;;;;;;4.93;1.45;;;;;;;;;;4977886;28;20439;-72
2022/01/28 14:55:40;;;;;;;10.98;1.50;;;;;;;;;;5015667;28;20042;-73
2022/01/28 14:58:06;;;;;;;7.15;1.55;;;;;;;;;;5015582;28;20061;-72
2022/01/28 15:00:33;;;;;;;4.72;1.00;;;;;;;;;;5015539;28;20038;-74
2022/01/28 15:03:02;;;;;;;3.97;1.20;;;;;;;;;;5016723;28;20511;-74
2022/01/28 15:05:29;;;;;;;8.35;1.42;;;;;;;;;;5015339;28;20037;-73
2022/01/28 15:07:56;;;;;;;8.73;1.70;;;;;;;;;;5015431;28;20031;-71
2022/01/28 15:10:27;;;;;;;7.38;1.40;;;;;;;;;;5016810;28;20058;-69
2022/01/28 15:12:54;;;;;;;7.00;1.67;;;;;;;;;;5016594;28;20049;-71
2022/01/28 15:15:20;;;;;;;8.38;1.70;;;;;;;;;;5015207;28;20029;-72
2022/01/28 15:17:46;;;;;;;10.75;1.60;;;;;;;;;;5015206;28;20080;-72
2022/01/28 15:20:12;;;;;;;6.28;1.30;;;;;;;;;;5015185;28;20040;-72
2022/01/28 15:22:38;;;;;;;5.10;1.27;;;;;;;;;;5015135;28;20056;-73
2022/01/28 15:25:05;;;;;;;17.98;1.80;;;;;;;;;;5014959;28;20038;-72
2022/01/28 15:27:32;;;;;;;9.02;1.63;;;;;;;;;;5014966;28;20505;-73
2022/01/28 15:30:25;;;;;;;8.57;1.80;;;;;;;;;;5015018;28;20487;-72
2022/01/28 15:38:08;;;;;;;7.78;1.75;;;;;;;;;;5016126;28;20018;-71
2022/01/28 15:40:35;;;;;;;7.90;1.50;;;;;;;;;;5016612;28;20471;-72
2022/01/28 15:43:01;;;;;;;10.73;2.97;;;;;;;;;;5014735;28;20076;-74
2022/01/28 15:45:34;;;;;;;6.28;1.70;;;;;;;;;;5016174;28;20461;-70
2022/01/28 15:48:01;;;;;;;9.20;1.98;;;;;;;;;;5015445;28;20079;-73
2022/01/28 15:50:28;;;;;;;8.25;2.15;;;;;;;;;;5016097;28;20034;-73
2022/01/28 15:52:55;;;;;;;7.10;1.90;;;;;;;;;;5016047;28;20040;-71
2022/01/28 15:55:21;;;;;;;6.60;1.83;;;;;;;;;;5015588;28;20057;-70
2022/01/28 15:57:48;;;;;;;6.55;1.40;;;;;;;;;;5014475;28;20049;-72
2022/01/28 16:00:15;;;;;;;10.25;1.80;;;;;;;;;;5015642;28;20033;-74
2022/01/28 16:02:41;;;;;;;8.02;1.50;;;;;;;;;;5015606;28;20068;-71
2022/01/28 16:05:07;;;;;;;11.27;1.60;;;;;;;;;;5015413;28;20100;-71
2022/01/28 16:07:34;;;;;;;7.45;1.70;;;;;;;;;;5014276;28;20018;-71
2022/01/28 16:10:16;;;;;;;10.65;1.67;;;;;;;;;;5014270;28;20041;-73
2022/01/28 16:15:21;;;;;;;7.80;1.65;;;;;;;;;;5015491;28;20036;-71
2022/01/28 16:17:48;;;;;;;7.00;1.58;;;;;;;;;;5015944;28;20026;-72
2022/01/28 16:20:14;;;;;;;9.40;1.77;;;;;;;;;;5014076;28;20057;-70
2022/01/28 16:22:40;;;;;;;7.95;1.80;;;;;;;;;;5015687;28;20028;-72
2022/01/28 16:25:07;;;;;;;6.55;1.73;;;;;;;;;;5013910;28;20594;-71
2022/01/28 16:27:33;;;;;;;8.18;1.73;;;;;;;;;;5013899;28;20073;-71
2022/01/28 16:30:00;;;;;;;11.18;2.05;;;;;;;;;;5013927;28;20438;-72
2022/01/28 16:32:26;;;;;;;8.90;2.13;;;;;;;;;;5015048;28;20470;-73
2022/01/28 16:34:53;;;;;;;10.95;1.63;;;;;;;;;;5014562;28;20079;-73
2022/01/28 16:37:20;;;;;;;7.20;1.90;;;;;;;;;;5013770;28;20026;-73
2022/01/28 16:39:49;;;;;;;7.45;1.42;;;;;;;;;;5013637;28;20414;-72